createdAt,value
2018-04-06T00:00:46.279Z,5.71
2018-04-06T00:01:52.501Z,5.60
2018-04-06T00:02:58.768Z,5.61
2018-04-06T00:04:04.656Z,5.60
2018-04-06T00:05:10.911Z,5.49
2018-04-06T00:06:17.231Z,5.47
2018-04-06T00:07:23.274Z,5.52
2018-04-06T00:08:29.590Z,5.51
2018-04-06T00:09:35.837Z,5.48
2018-04-06T00:10:42.071Z,5.54
2018-04-06T00:11:48.271Z,5.53
2018-04-06T00:12:54.555Z,5.58
2018-04-06T00:14:00.799Z,5.59
2018-04-06T00:15:07.392Z,5.54
2018-04-06T00:16:13.627Z,5.46
2018-04-06T00:17:19.812Z,5.46
2018-04-06T00:18:26.024Z,5.41
2018-04-06T00:19:32.729Z,5.46
2018-04-06T00:20:38.980Z,5.22
2018-04-06T00:21:45.283Z,5.25
2018-04-06T00:22:52.375Z,5.19
2018-04-06T00:23:58.403Z,5.19
2018-04-06T00:25:04.905Z,5.20
2018-04-06T00:26:11.196Z,5.11
2018-04-06T00:27:17.477Z,5.17
2018-04-06T00:28:23.724Z,5.15
2018-04-06T00:29:30.166Z,5.12
2018-04-06T00:30:36.448Z,5.10
2018-04-06T00:31:42.735Z,5.13
2018-04-06T00:32:48.524Z,5.11
2018-04-06T00:33:54.848Z,5.06
2018-04-06T00:35:02.257Z,5.11
2018-04-06T00:36:08.673Z,5.18
2018-04-06T00:37:14.983Z,5.24
2018-04-06T00:38:21.237Z,5.32
2018-04-06T00:39:28.366Z,5.36
2018-04-06T00:40:34.888Z,5.18
2018-04-06T00:41:40.920Z,4.93
2018-04-06T00:42:47.628Z,5.03
2018-04-06T00:43:54.211Z,5.06
2018-04-06T00:45:00.497Z,5.06
2018-04-06T00:46:06.755Z,5.09
2018-04-06T00:47:13.032Z,5.04
2018-04-06T00:48:19.316Z,4.95
2018-04-06T00:49:25.595Z,5.01
2018-04-06T00:50:31.904Z,5.04
2018-04-06T00:51:38.437Z,5.04
2018-04-06T00:52:44.889Z,5.04
2018-04-06T00:53:50.942Z,5.19
2018-04-06T00:54:57.225Z,5.25
2018-04-06T00:56:03.458Z,5.27
2018-04-06T00:57:09.716Z,5.12
2018-04-06T00:58:15.982Z,5.06
2018-04-06T00:59:21.882Z,5.08
2018-04-06T01:00:28.551Z,5.09
2018-04-06T01:01:33.732Z,5.03
2018-04-06T01:02:41.192Z,5.05
2018-04-06T01:03:47.592Z,5.03
2018-04-06T01:04:53.865Z,5.04
2018-04-06T01:06:00.696Z,4.98
2018-04-06T01:07:07.072Z,5.05
2018-04-06T01:08:13.133Z,4.93
2018-04-06T01:09:19.405Z,5.01
2018-04-06T01:10:25.692Z,5.05
2018-04-06T01:11:32.093Z,4.94
2018-04-06T01:12:38.535Z,4.98
2018-04-06T01:13:45.259Z,4.95
2018-04-06T01:14:51.576Z,4.98
2018-04-06T01:15:57.594Z,4.89
2018-04-06T01:17:04.125Z,4.91
2018-04-06T01:18:09.926Z,4.94
2018-04-06T01:19:16.212Z,5.00
2018-04-06T01:20:23.059Z,4.84
2018-04-06T01:21:29.361Z,4.80
2018-04-06T01:22:40.728Z,4.71
2018-04-06T01:23:46.957Z,4.72
2018-04-06T01:24:53.846Z,4.62
2018-04-06T01:26:00.148Z,4.61
2018-04-06T01:27:07.091Z,4.74
2018-04-06T01:28:13.361Z,4.60
2018-04-06T01:29:19.624Z,4.66
2018-04-06T01:30:26.787Z,4.47
2018-04-06T01:31:33.123Z,4.55
2018-04-06T01:32:39.395Z,4.53
2018-04-06T01:33:45.667Z,4.44
2018-04-06T01:34:51.957Z,4.31
2018-04-06T01:35:58.230Z,4.39
2018-04-06T01:37:04.569Z,4.47
2018-04-06T01:38:10.826Z,4.64
2018-04-06T01:39:17.145Z,4.67
2018-04-06T01:40:23.418Z,4.60
2018-04-06T01:41:30.133Z,4.52
2018-04-06T01:42:36.392Z,4.54
2018-04-06T01:43:42.669Z,4.52
2018-04-06T01:44:48.897Z,4.50
2018-04-06T01:45:55.289Z,4.61
2018-04-06T01:47:01.522Z,4.48
2018-04-06T01:48:07.814Z,4.49
2018-04-06T01:49:14.196Z,4.45
2018-04-06T01:50:20.421Z,4.51
2018-04-06T01:51:26.688Z,4.55
2018-04-06T01:52:32.948Z,4.55
2018-04-06T01:53:39.211Z,4.49
2018-04-06T01:54:45.100Z,4.26
2018-04-06T01:55:51.498Z,4.17
2018-04-06T01:56:57.784Z,4.13
2018-04-06T01:58:04.113Z,4.06
2018-04-06T01:59:10.400Z,4.02
2018-04-06T02:00:16.683Z,3.94
2018-04-06T02:01:23.374Z,3.97
2018-04-06T02:02:29.951Z,3.90
2018-04-06T02:03:36.196Z,3.88
2018-04-06T02:04:42.705Z,3.81
2018-04-06T02:05:48.975Z,3.77
2018-04-06T02:06:58.277Z,3.72
2018-04-06T02:08:06.581Z,3.75
2018-04-06T02:09:12.872Z,3.80
2018-04-06T02:10:18.895Z,3.72
2018-04-06T02:11:24.965Z,3.62
2018-04-06T02:12:31.678Z,3.48
2018-04-06T02:13:37.932Z,3.53
2018-04-06T02:14:44.165Z,3.40
2018-04-06T02:15:50.784Z,3.42
2018-04-06T02:16:56.782Z,3.50
2018-04-06T02:18:03.011Z,3.45
2018-04-06T02:19:09.280Z,3.44
2018-04-06T02:20:15.447Z,3.48
2018-04-06T02:21:21.699Z,3.47
2018-04-06T02:22:33.579Z,3.35
2018-04-06T02:23:41.822Z,3.29
2018-04-06T02:24:48.928Z,3.21
2018-04-06T02:25:55.584Z,3.28
2018-04-06T02:27:01.828Z,3.05
2018-04-06T02:28:07.816Z,3.05
2018-04-06T02:29:13.876Z,3.18
2018-04-06T02:30:21.039Z,3.05
2018-04-06T02:31:28.172Z,2.98
2018-04-06T02:32:34.764Z,2.83
2018-04-06T02:33:41.642Z,2.93
2018-04-06T02:34:48.611Z,2.73
2018-04-06T02:35:54.995Z,2.83
2018-04-06T02:37:01.213Z,2.88
2018-04-06T02:38:07.459Z,2.96
2018-04-06T02:39:13.728Z,2.83
2018-04-06T02:40:19.965Z,2.80
2018-04-06T02:41:25.997Z,2.77
2018-04-06T02:42:32.305Z,2.85
2018-04-06T02:43:41.164Z,2.81
2018-04-06T02:44:52.347Z,2.75
2018-04-06T02:45:58.593Z,2.75
2018-04-06T02:47:05.775Z,2.72
2018-04-06T02:48:12.745Z,2.82
2018-04-06T02:49:19.433Z,2.76
2018-04-06T02:50:25.698Z,2.68
2018-04-06T02:51:31.922Z,2.67
2018-04-06T02:52:38.144Z,2.58
2018-04-06T02:53:44.581Z,2.58
2018-04-06T02:54:50.823Z,2.54
2018-04-06T02:55:57.187Z,2.47
2018-04-06T02:57:04.441Z,2.42
2018-04-06T02:58:11.307Z,2.54
2018-04-06T02:59:18.441Z,2.70
2018-04-06T03:00:25.254Z,2.69
2018-04-06T03:01:31.527Z,2.67
2018-04-06T03:02:37.765Z,2.60
2018-04-06T03:03:44.336Z,2.62
2018-04-06T03:04:50.619Z,2.48
2018-04-06T03:05:57.995Z,2.51
2018-04-06T03:07:05.115Z,2.51
2018-04-06T03:08:12.330Z,2.40
2018-04-06T03:09:19.754Z,2.56
2018-04-06T03:10:26.152Z,2.64
2018-04-06T03:11:32.364Z,2.49
2018-04-06T03:12:39.402Z,2.49
2018-04-06T03:13:46.016Z,2.47
2018-04-06T03:14:52.271Z,2.44
2018-04-06T03:15:58.547Z,2.48
2018-04-06T03:17:04.800Z,2.45
2018-04-06T03:18:11.393Z,2.43
2018-04-06T03:19:18.590Z,2.50
2018-04-06T03:20:24.810Z,2.40
2018-04-06T03:21:31.142Z,2.50
2018-04-06T03:22:38.066Z,2.40
2018-04-06T03:23:44.386Z,2.34
2018-04-06T03:24:50.626Z,2.33
2018-04-06T03:26:00.541Z,2.35
2018-04-06T03:27:06.769Z,2.35
2018-04-06T03:28:13.014Z,2.35
2018-04-06T03:29:19.226Z,2.32
2018-04-06T03:30:25.700Z,2.35
2018-04-06T03:31:31.953Z,2.30
2018-04-06T03:32:38.532Z,2.24
2018-04-06T03:33:44.781Z,2.34
2018-04-06T03:34:51.947Z,2.33
2018-04-06T03:35:58.173Z,2.45
2018-04-06T03:37:04.515Z,2.52
2018-04-06T03:38:11.254Z,2.46
2018-04-06T03:39:17.522Z,2.29
2018-04-06T03:40:24.762Z,2.36
2018-04-06T03:41:31.779Z,2.29
2018-04-06T03:42:38.153Z,2.26
2018-04-06T03:43:44.747Z,2.24
2018-04-06T03:44:51.368Z,2.30
2018-04-06T03:45:58.431Z,2.17
2018-04-06T03:47:08.622Z,2.33
2018-04-06T03:48:15.088Z,2.26
2018-04-06T03:49:21.542Z,2.25
2018-04-06T03:50:27.967Z,2.41
2018-04-06T03:51:34.519Z,2.44
2018-04-06T03:52:40.826Z,2.47
2018-04-06T03:53:47.489Z,2.49
2018-04-06T03:54:53.942Z,2.45
2018-04-06T03:56:00.282Z,2.42
2018-04-06T03:57:07.161Z,2.46
2018-04-06T03:58:13.795Z,2.46
2018-04-06T03:59:20.180Z,2.47
2018-04-06T04:00:26.503Z,2.40
2018-04-06T04:01:32.809Z,2.29
2018-04-06T04:02:39.039Z,2.35
2018-04-06T04:03:46.503Z,2.23
2018-04-06T04:04:55.299Z,2.15
2018-04-06T04:06:01.746Z,2.22
2018-04-06T04:07:08.253Z,2.09
2018-04-06T04:08:15.216Z,2.19
2018-04-06T04:09:22.657Z,2.19
2018-04-06T04:10:29.363Z,2.24
2018-04-06T04:11:35.362Z,2.20
2018-04-06T04:12:41.296Z,2.19
2018-04-06T04:13:47.602Z,2.13
2018-04-06T04:14:54.709Z,2.07
2018-04-06T04:16:00.700Z,2.14
2018-04-06T04:17:07.521Z,2.20
2018-04-06T04:18:14.643Z,2.16
2018-04-06T04:19:20.911Z,2.20
2018-04-06T04:20:27.289Z,2.28
2018-04-06T04:21:33.595Z,2.26
2018-04-06T04:22:40.677Z,2.20
2018-04-06T04:23:47.062Z,2.18
2018-04-06T04:24:54.186Z,2.17
2018-04-06T04:26:01.759Z,2.16
2018-04-06T04:27:08.004Z,2.07
2018-04-06T04:28:15.773Z,2.16
2018-04-06T04:29:23.659Z,2.05
2018-04-06T04:30:30.676Z,1.99
2018-04-06T04:31:37.401Z,2.00
2018-04-06T04:32:43.616Z,2.07
2018-04-06T04:33:49.866Z,2.15
2018-04-06T04:34:57.102Z,2.04
2018-04-06T04:36:03.368Z,2.12
2018-04-06T04:37:09.677Z,2.17
2018-04-06T04:38:16.606Z,2.09
2018-04-06T04:39:22.854Z,2.08
2018-04-06T04:40:29.154Z,2.09
2018-04-06T04:41:35.426Z,2.04
2018-04-06T04:42:44.496Z,2.09
2018-04-06T04:43:50.707Z,2.05
2018-04-06T04:44:57.709Z,2.10
2018-04-06T04:46:03.975Z,2.06
2018-04-06T04:47:10.648Z,2.19
2018-04-06T04:48:17.885Z,2.30
2018-04-06T04:49:26.218Z,2.18
2018-04-06T04:50:32.787Z,2.14
2018-04-06T04:51:39.936Z,2.14
2018-04-06T04:52:47.184Z,2.08
2018-04-06T04:53:53.607Z,2.07
2018-04-06T04:55:00.343Z,2.15
2018-04-06T04:56:07.309Z,2.12
2018-04-06T04:57:15.150Z,2.15
2018-04-06T04:58:21.181Z,2.23
2018-04-06T04:59:28.419Z,2.07
2018-04-06T05:00:34.740Z,2.15
2018-04-06T05:01:41.768Z,2.00
2018-04-06T05:02:47.986Z,1.94
2018-04-06T05:03:54.710Z,1.99
2018-04-06T05:05:01.061Z,2.13
2018-04-06T05:06:07.455Z,2.14
2018-04-06T05:07:14.208Z,2.12
2018-04-06T05:08:20.457Z,2.27
2018-04-06T05:09:27.529Z,2.38
2018-04-06T05:10:33.741Z,2.49
2018-04-06T05:11:41.415Z,2.45
2018-04-06T05:12:47.967Z,2.43
2018-04-06T05:13:55.266Z,2.50
2018-04-06T05:15:01.864Z,2.61
2018-04-06T05:16:08.152Z,2.54
2018-04-06T05:17:14.413Z,2.58
2018-04-06T05:18:21.105Z,2.51
2018-04-06T05:19:28.155Z,2.43
2018-04-06T05:20:35.183Z,2.32
2018-04-06T05:21:42.056Z,2.38
2018-04-06T05:22:48.845Z,2.41
2018-04-06T05:23:55.920Z,2.59
2018-04-06T05:25:02.586Z,2.72
2018-04-06T05:26:09.432Z,2.99
2018-04-06T05:27:15.404Z,3.22
2018-04-06T05:28:22.305Z,3.31
2018-04-06T05:29:29.538Z,3.38
2018-04-06T05:30:36.754Z,3.30
2018-04-06T05:31:44.749Z,3.32
2018-04-06T05:32:51.592Z,3.54
2018-04-06T05:33:57.853Z,3.61
2018-04-06T05:35:06.080Z,3.75
2018-04-06T05:36:13.471Z,3.74
2018-04-06T05:37:20.536Z,3.80
2018-04-06T05:38:29.235Z,3.93
2018-04-06T05:39:36.596Z,4.12
2018-04-06T05:40:46.772Z,4.18
2018-04-06T05:41:53.013Z,4.29
2018-04-06T05:42:59.440Z,4.70
2018-04-06T05:44:05.866Z,4.80
2018-04-06T05:45:12.102Z,5.05
2018-04-06T05:46:18.744Z,5.02
2018-04-06T05:47:24.833Z,5.14
2018-04-06T05:48:31.048Z,5.20
2018-04-06T05:49:37.450Z,5.31
2018-04-06T05:50:43.745Z,5.30
2018-04-06T05:51:51.021Z,5.40
2018-04-06T05:52:57.343Z,5.44
2018-04-06T05:54:03.786Z,5.54
2018-04-06T05:55:10.032Z,5.55
2018-04-06T05:56:16.308Z,5.69
2018-04-06T05:57:22.540Z,5.73
2018-04-06T05:58:28.790Z,5.80
2018-04-06T05:59:35.025Z,5.82
2018-04-06T06:00:41.312Z,5.66
2018-04-06T06:01:47.582Z,5.76
2018-04-06T06:02:53.794Z,5.73
2018-04-06T06:04:00.000Z,5.80
2018-04-06T06:05:06.218Z,5.69
2018-04-06T06:06:12.471Z,5.83
2018-04-06T06:07:18.720Z,5.83
2018-04-06T06:08:24.942Z,5.77
2018-04-06T06:09:31.130Z,6.05
2018-04-06T06:10:37.324Z,6.25
2018-04-06T06:11:43.582Z,6.33
2018-04-06T06:12:52.728Z,6.28
2018-04-06T06:13:58.986Z,6.40
2018-04-06T06:15:05.050Z,6.46
2018-04-06T06:16:11.260Z,6.57
2018-04-06T06:17:17.486Z,6.63
2018-04-06T06:18:23.398Z,6.40
2018-04-06T06:19:29.628Z,6.58
2018-04-06T06:20:35.625Z,6.70
2018-04-06T06:21:41.849Z,6.53
2018-04-06T06:22:48.050Z,6.71
2018-04-06T06:23:54.249Z,6.68
2018-04-06T06:25:00.485Z,6.73
2018-04-06T06:26:07.103Z,6.81
2018-04-06T06:27:13.508Z,6.70
2018-04-06T06:28:19.699Z,6.79
2018-04-06T06:29:25.890Z,7.03
2018-04-06T06:30:32.075Z,7.13
2018-04-06T06:31:38.259Z,7.37
2018-04-06T06:32:44.432Z,7.47
2018-04-06T06:33:55.835Z,7.35
2018-04-06T06:35:02.398Z,7.15
2018-04-06T06:36:08.604Z,7.21
2018-04-06T06:37:14.768Z,7.50
2018-04-06T06:38:20.991Z,7.50
2018-04-06T06:39:27.190Z,7.37
2018-04-06T06:40:33.370Z,7.45
2018-04-06T06:41:39.545Z,7.57
2018-04-06T06:42:45.732Z,7.60
2018-04-06T06:43:52.048Z,7.74
2018-04-06T06:44:58.258Z,7.74
2018-04-06T06:46:04.464Z,7.80
2018-04-06T06:47:10.974Z,7.83
2018-04-06T06:48:17.199Z,7.82
2018-04-06T06:49:22.886Z,7.91
2018-04-06T06:50:29.123Z,7.84
2018-04-06T06:51:35.304Z,7.84
2018-04-06T06:52:41.476Z,8.11
2018-04-06T06:53:47.673Z,8.23
2018-04-06T06:54:53.889Z,8.27
2018-04-06T06:56:00.096Z,8.21
2018-04-06T06:57:06.329Z,8.31
2018-04-06T06:58:12.697Z,8.19
2018-04-06T06:59:20.880Z,7.99
2018-04-06T07:00:27.060Z,8.21
2018-04-06T07:01:33.299Z,8.26
2018-04-06T07:02:39.185Z,8.25
2018-04-06T07:03:45.408Z,8.20
2018-04-06T07:04:51.703Z,8.30
2018-04-06T07:05:57.944Z,8.38
2018-04-06T07:07:03.815Z,8.50
2018-04-06T07:08:10.425Z,8.39
2018-04-06T07:09:16.747Z,8.26
2018-04-06T07:10:22.990Z,8.33
2018-04-06T07:11:29.229Z,8.65
2018-04-06T07:12:35.434Z,8.65
2018-04-06T07:13:41.679Z,8.70
2018-04-06T07:14:47.967Z,8.77
2018-04-06T07:15:54.190Z,8.66
2018-04-06T07:17:00.427Z,8.66
2018-04-06T07:18:06.657Z,8.84
2018-04-06T07:19:12.904Z,8.73
2018-04-06T07:20:19.453Z,8.95
2018-04-06T07:21:25.630Z,8.73
2018-04-06T07:22:31.829Z,8.82
2018-04-06T07:23:38.013Z,8.86
2018-04-06T07:24:44.198Z,8.70
2018-04-06T07:25:50.387Z,8.84
2018-04-06T07:26:56.604Z,9.11
2018-04-06T07:28:02.873Z,9.06
2018-04-06T07:29:09.119Z,9.23
2018-04-06T07:30:15.317Z,9.02
2018-04-06T07:31:21.590Z,8.91
2018-04-06T07:32:27.880Z,8.85
2018-04-06T07:33:34.280Z,8.98
2018-04-06T07:34:40.540Z,9.02
2018-04-06T07:35:48.689Z,8.93
2018-04-06T07:36:55.500Z,9.02
2018-04-06T07:38:01.733Z,9.08
2018-04-06T07:39:07.341Z,9.29
2018-04-06T07:40:13.303Z,9.09
2018-04-06T07:41:19.570Z,8.88
2018-04-06T07:42:26.133Z,9.15
2018-04-06T07:43:41.440Z,9.23
2018-04-06T07:44:47.680Z,9.13
2018-04-06T07:45:53.982Z,9.06
2018-04-06T07:47:00.410Z,9.18
2018-04-06T07:48:06.730Z,9.19
2018-04-06T07:49:12.957Z,9.46
2018-04-06T07:50:19.197Z,9.34
2018-04-06T07:51:25.427Z,9.42
2018-04-06T07:52:31.744Z,9.35
2018-04-06T07:53:38.155Z,9.58
2018-04-06T07:54:44.411Z,9.42
2018-04-06T07:55:50.632Z,9.58
2018-04-06T07:57:04.129Z,9.50
2018-04-06T07:58:10.560Z,9.47
2018-04-06T07:59:16.807Z,9.55
2018-04-06T08:00:23.031Z,9.74
2018-04-06T08:01:29.322Z,9.45
2018-04-06T08:02:35.582Z,9.72
2018-04-06T08:03:41.851Z,9.85
2018-04-06T08:04:48.092Z,9.97
2018-04-06T08:05:54.325Z,9.91
2018-04-06T08:07:00.569Z,9.79
2018-04-06T08:08:06.572Z,9.87
2018-04-06T08:09:12.943Z,9.99
2018-04-06T08:10:19.195Z,10.03
2018-04-06T08:11:25.452Z,10.04
2018-04-06T08:12:31.564Z,10.26
2018-04-06T08:13:37.851Z,9.98
2018-04-06T08:14:44.065Z,10.05
2018-04-06T08:15:50.323Z,10.12
2018-04-06T08:16:56.398Z,10.11
2018-04-06T08:18:02.660Z,9.58
2018-04-06T08:19:08.645Z,9.64
2018-04-06T08:20:14.937Z,9.27
2018-04-06T08:21:21.585Z,9.25
2018-04-06T08:22:27.865Z,9.36
2018-04-06T08:23:34.177Z,9.67
2018-04-06T08:24:40.468Z,9.76
2018-04-06T08:25:46.678Z,9.44
2018-04-06T08:26:52.653Z,9.78
2018-04-06T08:27:58.933Z,9.73
2018-04-06T08:29:05.192Z,9.64
2018-04-06T08:30:11.463Z,9.85
2018-04-06T08:31:17.706Z,10.00
2018-04-06T08:32:24.141Z,10.17
2018-04-06T08:33:30.354Z,10.30
2018-04-06T08:34:36.790Z,10.28
2018-04-06T08:35:43.025Z,9.76
2018-04-06T08:36:49.250Z,9.49
2018-04-06T08:37:55.470Z,9.35
2018-04-06T08:39:08.615Z,9.28
2018-04-06T08:40:15.121Z,9.54
2018-04-06T08:41:21.496Z,9.39
2018-04-06T08:42:27.773Z,9.61
2018-04-06T08:43:34.155Z,9.53
2018-04-06T08:44:40.370Z,9.61
2018-04-06T08:45:46.682Z,9.62
2018-04-06T08:46:52.905Z,9.84
2018-04-06T08:47:59.102Z,9.98
2018-04-06T08:49:05.124Z,10.15
2018-04-06T08:50:11.382Z,9.99
2018-04-06T08:51:17.772Z,10.08
2018-04-06T08:52:24.040Z,9.80
2018-04-06T08:53:30.310Z,9.61
2018-04-06T08:54:36.553Z,9.08
2018-04-06T08:55:42.757Z,9.36
2018-04-06T08:56:49.051Z,9.23
2018-04-06T08:57:55.289Z,9.63
2018-04-06T08:59:01.556Z,9.86
2018-04-06T09:00:13.541Z,9.69
2018-04-06T09:01:21.389Z,10.08
2018-04-06T09:02:27.617Z,10.27
2018-04-06T09:03:33.841Z,10.39
2018-04-06T09:04:40.100Z,10.49
2018-04-06T09:05:46.460Z,9.97
2018-04-06T09:06:52.341Z,9.71
2018-04-06T09:07:58.564Z,9.55
2018-04-06T09:09:03.875Z,9.96
2018-04-06T09:10:10.089Z,10.30
2018-04-06T09:11:16.373Z,10.44
2018-04-06T09:12:22.622Z,9.62
2018-04-06T09:13:28.851Z,9.43
2018-04-06T09:14:35.077Z,9.26
2018-04-06T09:15:41.046Z,9.68
2018-04-06T09:16:47.021Z,9.96
2018-04-06T09:17:53.272Z,10.22
2018-04-06T09:18:59.300Z,10.57
2018-04-06T09:20:05.727Z,10.59
2018-04-06T09:21:19.213Z,10.58
2018-04-06T09:22:26.256Z,10.20
2018-04-06T09:23:32.548Z,10.47
2018-04-06T09:24:38.777Z,10.75
2018-04-06T09:25:45.024Z,10.92
2018-04-06T09:26:51.312Z,11.11
2018-04-06T09:27:57.558Z,11.24
2018-04-06T09:29:03.815Z,11.15
2018-04-06T09:30:10.299Z,11.32
2018-04-06T09:31:16.923Z,11.50
2018-04-06T09:32:23.144Z,11.55
2018-04-06T09:33:29.408Z,11.59
2018-04-06T09:34:35.675Z,11.66
2018-04-06T09:35:41.907Z,11.63
2018-04-06T09:36:48.132Z,11.75
2018-04-06T09:37:54.392Z,11.82
2018-04-06T09:39:00.620Z,11.40
2018-04-06T09:40:06.853Z,11.06
2018-04-06T09:41:13.126Z,10.08
2018-04-06T09:42:19.483Z,10.37
2018-04-06T09:43:30.237Z,9.55
2018-04-06T09:44:37.339Z,9.53
2018-04-06T09:45:43.929Z,9.70
2018-04-06T09:46:50.213Z,9.86
2018-04-06T09:47:56.438Z,9.76
2018-04-06T09:49:02.668Z,9.38
2018-04-06T09:50:08.688Z,9.64
2018-04-06T09:51:15.103Z,9.63
2018-04-06T09:52:21.380Z,9.77
2018-04-06T09:53:27.609Z,10.08
2018-04-06T09:54:33.822Z,9.99
2018-04-06T09:55:39.992Z,9.49
2018-04-06T09:56:46.188Z,9.74
2018-04-06T09:57:52.379Z,9.81
2018-04-06T09:58:58.640Z,10.03
2018-04-06T10:00:04.273Z,10.21
2018-04-06T10:01:10.394Z,10.43
2018-04-06T10:02:16.477Z,10.78
2018-04-06T10:03:22.880Z,11.06
2018-04-06T10:04:29.158Z,11.20
2018-04-06T10:05:35.398Z,11.49
2018-04-06T10:06:41.648Z,11.61
2018-04-06T10:07:47.945Z,11.70
2018-04-06T10:08:53.948Z,11.18
2018-04-06T10:10:00.379Z,10.60
2018-04-06T10:11:06.465Z,10.65
2018-04-06T10:12:12.790Z,10.36
2018-04-06T10:13:19.012Z,10.21
2018-04-06T10:14:25.492Z,10.03
2018-04-06T10:15:31.752Z,10.17
2018-04-06T10:16:37.994Z,10.11
2018-04-06T10:17:44.010Z,10.47
2018-04-06T10:18:50.253Z,10.40
2018-04-06T10:19:56.659Z,10.80
2018-04-06T10:21:03.033Z,10.91
2018-04-06T10:22:09.351Z,10.82
2018-04-06T10:23:15.611Z,11.07
2018-04-06T10:24:21.927Z,10.49
2018-04-06T10:25:28.198Z,10.83
2018-04-06T10:26:34.468Z,10.82
2018-04-06T10:27:40.460Z,10.88
2018-04-06T10:28:46.749Z,11.20
2018-04-06T10:29:53.028Z,11.41
2018-04-06T10:30:59.832Z,11.14
2018-04-06T10:32:06.098Z,11.12
2018-04-06T10:33:12.376Z,10.74
2018-04-06T10:34:18.614Z,10.90
2018-04-06T10:35:24.925Z,10.90
2018-04-06T10:36:30.978Z,11.00
2018-04-06T10:37:37.314Z,11.03
2018-04-06T10:38:43.582Z,10.22
2018-04-06T10:39:49.841Z,10.42
2018-04-06T10:40:56.122Z,10.10
2018-04-06T10:42:03.319Z,10.21
2018-04-06T10:43:09.591Z,10.43
2018-04-06T10:44:15.836Z,10.65
2018-04-06T10:45:22.165Z,10.79
2018-04-06T10:46:29.528Z,10.94
2018-04-06T10:47:35.829Z,11.03
2018-04-06T10:48:42.145Z,10.75
2018-04-06T10:49:48.432Z,10.99
2018-04-06T10:50:54.773Z,10.37
2018-04-06T10:52:01.058Z,10.73
2018-04-06T10:53:07.333Z,11.14
2018-04-06T10:54:13.546Z,11.11
2018-04-06T10:55:20.274Z,11.00
2018-04-06T10:56:26.778Z,10.89
2018-04-06T10:57:33.051Z,10.95
2018-04-06T10:58:39.374Z,11.03
2018-04-06T10:59:45.682Z,11.21
2018-04-06T11:00:52.010Z,11.19
2018-04-06T11:01:58.224Z,11.31
2018-04-06T11:03:04.477Z,11.26
2018-04-06T11:04:10.747Z,10.60
2018-04-06T11:05:17.289Z,10.84
2018-04-06T11:06:24.366Z,11.21
2018-04-06T11:07:30.586Z,11.57
2018-04-06T11:08:37.460Z,11.69
2018-04-06T11:09:43.689Z,11.79
2018-04-06T11:10:49.948Z,11.51
2018-04-06T11:11:56.282Z,11.77
2018-04-06T11:13:02.504Z,12.04
2018-04-06T11:14:08.766Z,11.42
2018-04-06T11:15:14.995Z,11.29
2018-04-06T11:16:21.346Z,11.67
2018-04-06T11:17:28.210Z,11.40
2018-04-06T11:18:34.555Z,10.47
2018-04-06T11:19:40.945Z,10.81
2018-04-06T11:20:47.252Z,11.01
2018-04-06T11:21:53.577Z,11.19
2018-04-06T11:22:59.927Z,11.58
2018-04-06T11:24:06.409Z,11.68
2018-04-06T11:25:12.619Z,11.57
2018-04-06T11:26:18.847Z,11.70
2018-04-06T11:27:32.676Z,11.66
2018-04-06T11:28:39.309Z,11.30
2018-04-06T11:29:45.562Z,11.57
2018-04-06T11:30:51.960Z,11.68
2018-04-06T11:31:57.938Z,11.45
2018-04-06T11:33:04.238Z,11.19
2018-04-06T11:34:10.479Z,11.60
2018-04-06T11:35:16.783Z,11.33
2018-04-06T11:36:23.049Z,11.39
2018-04-06T11:37:29.461Z,11.40
2018-04-06T11:38:35.761Z,11.69
2018-04-06T11:39:41.999Z,11.70
2018-04-06T11:40:48.254Z,11.85
2018-04-06T11:41:54.604Z,12.14
2018-04-06T11:43:01.445Z,12.45
2018-04-06T11:44:07.701Z,12.61
2018-04-06T11:45:14.157Z,12.80
2018-04-06T11:46:20.335Z,13.03
2018-04-06T11:47:26.568Z,12.16
2018-04-06T11:48:38.358Z,12.38
2018-04-06T11:49:45.127Z,12.59
2018-04-06T11:50:51.561Z,12.77
2018-04-06T11:51:57.829Z,12.90
2018-04-06T11:53:04.092Z,12.72
2018-04-06T11:54:10.384Z,12.00
2018-04-06T11:55:16.789Z,12.02
2018-04-06T11:56:23.044Z,12.28
2018-04-06T11:57:29.301Z,12.54
2018-04-06T11:58:35.551Z,12.62
2018-04-06T11:59:41.792Z,12.75
2018-04-06T12:00:48.050Z,12.39
2018-04-06T12:01:54.588Z,12.15
2018-04-06T12:03:00.815Z,11.19
2018-04-06T12:04:07.068Z,11.03
2018-04-06T12:05:13.334Z,11.17
2018-04-06T12:06:19.652Z,11.56
2018-04-06T12:07:25.804Z,11.57
2018-04-06T12:08:32.630Z,11.48
2018-04-06T12:09:39.031Z,11.71
2018-04-06T12:10:45.301Z,11.57
2018-04-06T12:11:51.564Z,11.12
2018-04-06T12:12:57.544Z,11.15
2018-04-06T12:14:03.893Z,11.41
2018-04-06T12:15:10.345Z,11.41
2018-04-06T12:16:16.668Z,11.54
2018-04-06T12:17:23.013Z,11.29
2018-04-06T12:18:29.304Z,11.62
2018-04-06T12:19:35.683Z,11.38
2018-04-06T12:20:41.930Z,11.21
2018-04-06T12:21:48.270Z,11.46
2018-04-06T12:22:54.535Z,11.69
2018-04-06T12:24:00.756Z,11.27
2018-04-06T12:25:06.708Z,11.32
2018-04-06T12:26:12.972Z,11.57
2018-04-06T12:27:19.238Z,11.71
2018-04-06T12:28:25.272Z,11.81
2018-04-06T12:29:31.582Z,11.71
2018-04-06T12:30:37.647Z,11.75
2018-04-06T12:31:44.536Z,11.73
2018-04-06T12:32:50.939Z,11.75
2018-04-06T12:33:57.210Z,11.51
2018-04-06T12:35:03.616Z,11.19
2018-04-06T12:36:09.880Z,11.21
2018-04-06T12:37:15.654Z,11.19
2018-04-06T12:38:21.922Z,11.26
2018-04-06T12:39:28.176Z,11.54
2018-04-06T12:40:34.393Z,11.56
2018-04-06T12:41:40.745Z,11.53
2018-04-06T12:42:47.419Z,11.79
2018-04-06T12:43:53.677Z,11.74
2018-04-06T12:44:59.921Z,11.58
2018-04-06T12:46:06.227Z,11.62
2018-04-06T12:47:12.459Z,11.89
2018-04-06T12:48:18.703Z,12.06
2018-04-06T12:49:24.957Z,12.05
2018-04-06T12:50:31.226Z,12.20
2018-04-06T12:51:37.456Z,12.48
2018-04-06T12:52:44.005Z,12.62
2018-04-06T12:53:50.244Z,12.77
2018-04-06T12:54:56.497Z,12.70
2018-04-06T12:56:03.171Z,12.41
2018-04-06T12:57:09.473Z,12.69
2018-04-06T12:58:15.726Z,12.25
2018-04-06T12:59:21.692Z,12.36
2018-04-06T13:00:27.706Z,12.26
2018-04-06T13:01:34.011Z,12.13
2018-04-06T13:02:40.267Z,12.28
2018-04-06T13:03:46.508Z,12.13
2018-04-06T13:04:52.793Z,11.74
2018-04-06T13:06:07.512Z,11.77
2018-04-06T13:07:13.775Z,11.67
2018-04-06T13:08:19.722Z,11.51
2018-04-06T13:09:26.017Z,11.25
2018-04-06T13:10:32.298Z,11.55
2018-04-06T13:11:40.948Z,11.63
2018-04-06T13:12:50.262Z,11.68
2018-04-06T13:14:00.547Z,11.78
2018-04-06T13:15:10.652Z,11.78
2018-04-06T13:16:16.944Z,11.99
2018-04-06T13:17:23.469Z,12.11
2018-04-06T13:18:29.765Z,12.14
2018-04-06T13:19:36.281Z,12.22
2018-04-06T13:20:43.231Z,12.31
2018-04-06T13:21:50.305Z,12.20
2018-04-06T13:22:56.580Z,12.43
2018-04-06T13:24:03.515Z,12.66
2018-04-06T13:25:09.971Z,12.81
2018-04-06T13:26:16.197Z,12.79
2018-04-06T13:27:22.472Z,12.73
2018-04-06T13:28:28.525Z,12.54
2018-04-06T13:29:34.775Z,12.69
2018-04-06T13:30:40.833Z,12.69
2018-04-06T13:31:47.076Z,12.67
2018-04-06T13:32:59.389Z,12.50
2018-04-06T13:34:05.730Z,12.54
2018-04-06T13:35:12.030Z,12.33
2018-04-06T13:36:18.315Z,12.22
2018-04-06T13:37:24.597Z,12.28
2018-04-06T13:38:31.069Z,12.10
2018-04-06T13:39:37.428Z,11.86
2018-04-06T13:40:43.744Z,12.00
2018-04-06T13:41:50.015Z,12.33
2018-04-06T13:42:56.240Z,12.23
2018-04-06T13:44:02.285Z,12.39
2018-04-06T13:45:08.545Z,11.97
2018-04-06T13:46:14.452Z,11.88
2018-04-06T13:47:20.779Z,11.83
2018-04-06T13:48:27.061Z,11.97
2018-04-06T13:49:33.742Z,11.93
2018-04-06T13:50:40.005Z,12.05
2018-04-06T13:51:46.272Z,12.14
2018-04-06T13:52:52.532Z,12.33
2018-04-06T13:53:58.825Z,12.04
2018-04-06T13:55:04.897Z,11.96
2018-04-06T13:56:11.189Z,11.96
2018-04-06T13:57:17.485Z,11.89
2018-04-06T13:58:23.332Z,12.00
2018-04-06T13:59:29.772Z,11.88
2018-04-06T14:00:36.266Z,12.00
2018-04-06T14:01:42.625Z,12.07
2018-04-06T14:02:49.097Z,12.08
2018-04-06T14:03:55.396Z,12.19
2018-04-06T14:05:01.661Z,12.14
2018-04-06T14:06:07.743Z,12.02
2018-04-06T14:07:14.079Z,12.15
2018-04-06T14:08:20.494Z,12.19
2018-04-06T14:09:26.764Z,12.15
2018-04-06T14:10:33.058Z,12.26
2018-04-06T14:11:39.354Z,12.40
2018-04-06T14:12:45.589Z,12.10
2018-04-06T14:13:52.209Z,12.13
2018-04-06T14:14:58.481Z,12.25
2018-04-06T14:16:04.484Z,12.23
2018-04-06T14:17:10.747Z,12.35
2018-04-06T14:18:21.013Z,12.46
2018-04-06T14:19:27.257Z,12.34
2018-04-06T14:20:33.564Z,12.36
2018-04-06T14:21:39.875Z,12.37
2018-04-06T14:22:47.273Z,12.42
2018-04-06T14:23:53.581Z,12.30
2018-04-06T14:25:00.686Z,12.36
2018-04-06T14:26:08.253Z,12.44
2018-04-06T14:27:14.556Z,12.06
2018-04-06T14:28:21.032Z,12.02
2018-04-06T14:29:27.302Z,12.04
2018-04-06T14:30:33.897Z,12.10
2018-04-06T14:31:40.172Z,11.94
2018-04-06T14:32:46.442Z,12.10
2018-04-06T14:33:52.702Z,12.22
2018-04-06T14:34:58.954Z,12.37